sensor_id;sensor_type;location;lat;lon;timestamp;P1;durP1;ratioP1;P2;durP2;ratioP2
2191;SDS011;1102;49.718;11.902;2022-07-29T00:00:25;3.37;;;2.10;;
2191;SDS011;1102;49.718;11.902;2022-07-29T00:02:58;4.53;;;2.60;;
2191;SDS011;1102;49.718;11.902;2022-07-29T00:05:38;2.57;;;2.20;;
2191;SDS011;1102;49.718;11.902;2022-07-29T00:08:10;3.20;;;2.37;;
2191;SDS011;1102;49.718;11.902;2022-07-29T00:10:50;4.10;;;3.10;;
2191;SDS011;1102;49.718;11.902;2022-07-29T00:13:34;6.80;;;2.80;;
2191;SDS011;1102;49.718;11.902;2022-07-29T00:16:10;6.30;;;3.27;;
2191;SDS011;1102;49.718;11.902;2022-07-29T00:18:40;2.57;;;2.37;;
2191;SDS011;1102;49.718;11.902;2022-07-29T00:21:21;9.83;;;2.90;;
2191;SDS011;1102;49.718;11.902;2022-07-29T00:23:56;7.27;;;2.70;;
2191;SDS011;1102;49.718;11.902;2022-07-29T00:26:33;3.57;;;2.33;;
2191;SDS011;1102;49.718;11.902;2022-07-29T00:29:06;2.90;;;2.70;;
2191;SDS011;1102;49.718;11.902;2022-07-29T00:32:05;2.83;;;2.63;;
2191;SDS011;1102;49.718;11.902;2022-07-29T00:34:36;3.97;;;2.37;;
2191;SDS011;1102;49.718;11.902;2022-07-29T00:37:27;7.57;;;2.73;;
2191;SDS011;1102;49.718;11.902;2022-07-29T00:40:03;3.10;;;2.80;;
2191;SDS011;1102;49.718;11.902;2022-07-29T00:42:46;3.33;;;3.03;;
2191;SDS011;1102;49.718;11.902;2022-07-29T00:45:25;4.07;;;2.43;;
2191;SDS011;1102;49.718;11.902;2022-07-29T00:47:58;5.23;;;3.00;;
2191;SDS011;1102;49.718;11.902;2022-07-29T00:50:34;3.60;;;2.70;;
2191;SDS011;1102;49.718;11.902;2022-07-29T00:53:07;6.83;;;3.00;;
2191;SDS011;1102;49.718;11.902;2022-07-29T00:55:41;2.63;;;2.43;;
2191;SDS011;1102;49.718;11.902;2022-07-29T00:58:21;6.50;;;2.60;;
2191;SDS011;1102;49.718;11.902;2022-07-29T01:01:10;5.03;;;2.50;;
2191;SDS011;1102;49.718;11.902;2022-07-29T01:03:51;5.73;;;2.60;;
2191;SDS011;1102;49.718;11.902;2022-07-29T01:06:31;3.50;;;2.60;;
2191;SDS011;1102;49.718;11.902;2022-07-29T01:09:12;4.87;;;2.80;;
2191;SDS011;1102;49.718;11.902;2022-07-29T01:12:03;3.93;;;3.30;;
2191;SDS011;1102;49.718;11.902;2022-07-29T01:14:40;4.33;;;2.87;;
2191;SDS011;1102;49.718;11.902;2022-07-29T01:17:14;3.53;;;2.70;;
2191;SDS011;1102;49.718;11.902;2022-07-29T01:32:20;6.17;;;4.13;;
2191;SDS011;1102;49.718;11.902;2022-07-29T01:35:02;5.27;;;3.50;;
2191;SDS011;1102;49.718;11.902;2022-07-29T01:37:48;6.10;;;3.43;;
2191;SDS011;1102;49.718;11.902;2022-07-29T01:40:25;5.03;;;2.73;;
2191;SDS011;1102;49.718;11.902;2022-07-29T01:43:06;4.63;;;2.93;;
2191;SDS011;1102;49.718;11.902;2022-07-29T01:49:11;6.53;;;3.10;;
2191;SDS011;1102;49.718;11.902;2022-07-29T01:52:07;6.23;;;3.30;;
2191;SDS011;1102;49.718;11.902;2022-07-29T01:54:54;3.00;;;2.73;;
2191;SDS011;1102;49.718;11.902;2022-07-29T01:57:28;4.07;;;3.17;;
2191;SDS011;1102;49.718;11.902;2022-07-29T02:00:01;10.23;;;4.60;;
2191;SDS011;1102;49.718;11.902;2022-07-29T02:02:39;5.23;;;3.17;;
2191;SDS011;1102;49.718;11.902;2022-07-29T02:05:12;4.70;;;3.27;;
2191;SDS011;1102;49.718;11.902;2022-07-29T02:07:48;3.23;;;2.60;;
2191;SDS011;1102;49.718;11.902;2022-07-29T02:10:34;5.50;;;3.17;;
2191;SDS011;1102;49.718;11.902;2022-07-29T02:13:06;6.80;;;2.83;;
2191;SDS011;1102;49.718;11.902;2022-07-29T02:15:36;3.80;;;3.10;;
2191;SDS011;1102;49.718;11.902;2022-07-29T02:18:09;3.10;;;2.57;;
2191;SDS011;1102;49.718;11.902;2022-07-29T02:20:40;4.60;;;3.50;;
2191;SDS011;1102;49.718;11.902;2022-07-29T02:23:15;4.53;;;3.20;;
2191;SDS011;1102;49.718;11.902;2022-07-29T02:25:53;3.50;;;3.20;;
2191;SDS011;1102;49.718;11.902;2022-07-29T02:28:30;3.13;;;2.80;;
2191;SDS011;1102;49.718;11.902;2022-07-29T02:31:01;5.30;;;3.00;;
2191;SDS011;1102;49.718;11.902;2022-07-29T02:33:33;4.73;;;3.07;;
2191;SDS011;1102;49.718;11.902;2022-07-29T02:36:01;4.07;;;2.87;;
2191;SDS011;1102;49.718;11.902;2022-07-29T02:38:38;3.40;;;2.80;;
2191;SDS011;1102;49.718;11.902;2022-07-29T02:41:23;5.13;;;3.03;;
2191;SDS011;1102;49.718;11.902;2022-07-29T02:43:58;8.07;;;3.60;;
2191;SDS011;1102;49.718;11.902;2022-07-29T02:47:10;3.60;;;2.73;;
2191;SDS011;1102;49.718;11.902;2022-07-29T02:53:01;4.53;;;2.97;;
2191;SDS011;1102;49.718;11.902;2022-07-29T02:58:37;3.27;;;2.97;;
2191;SDS011;1102;49.718;11.902;2022-07-29T03:01:08;6.03;;;2.80;;
2191;SDS011;1102;49.718;11.902;2022-07-29T03:03:48;5.23;;;3.00;;
2191;SDS011;1102;49.718;11.902;2022-07-29T03:06:32;4.80;;;2.87;;
2191;SDS011;1102;49.718;11.902;2022-07-29T03:09:06;4.60;;;3.10;;
2191;SDS011;1102;49.718;11.902;2022-07-29T03:11:42;3.20;;;2.90;;
2191;SDS011;1102;49.718;11.902;2022-07-29T03:14:17;6.37;;;3.27;;
2191;SDS011;1102;49.718;11.902;2022-07-29T03:16:47;3.63;;;2.43;;
2191;SDS011;1102;49.718;11.902;2022-07-29T03:19:18;4.03;;;3.17;;
2191;SDS011;1102;49.718;11.902;2022-07-29T03:21:49;1.80;;;1.70;;
2191;SDS011;1102;49.718;11.902;2022-07-29T03:24:26;4.93;;;2.63;;
2191;SDS011;1102;49.718;11.902;2022-07-29T03:26:58;3.67;;;2.30;;
2191;SDS011;1102;49.718;11.902;2022-07-29T03:29:26;3.03;;;2.53;;
2191;SDS011;1102;49.718;11.902;2022-07-29T03:32:01;4.40;;;3.00;;
2191;SDS011;1102;49.718;11.902;2022-07-29T03:34:36;2.77;;;2.17;;
2191;SDS011;1102;49.718;11.902;2022-07-29T03:37:12;3.50;;;2.23;;
2191;SDS011;1102;49.718;11.902;2022-07-29T03:39:40;2.80;;;2.60;;
2191;SDS011;1102;49.718;11.902;2022-07-29T03:42:19;2.17;;;1.97;;
2191;SDS011;1102;49.718;11.902;2022-07-29T03:44:50;4.10;;;2.70;;
2191;SDS011;1102;49.718;11.902;2022-07-29T03:47:23;3.97;;;2.63;;
2191;SDS011;1102;49.718;11.902;2022-07-29T03:50:13;8.80;;;3.00;;
2191;SDS011;1102;49.718;11.902;2022-07-29T03:52:49;6.60;;;3.20;;
2191;SDS011;1102;49.718;11.902;2022-07-29T03:55:16;4.80;;;2.90;;
2191;SDS011;1102;49.718;11.902;2022-07-29T03:57:45;3.40;;;2.13;;
2191;SDS011;1102;49.718;11.902;2022-07-29T04:00:16;4.43;;;2.53;;
2191;SDS011;1102;49.718;11.902;2022-07-29T04:02:50;4.77;;;2.87;;
2191;SDS011;1102;49.718;11.902;2022-07-29T04:05:17;3.47;;;2.60;;
2191;SDS011;1102;49.718;11.902;2022-07-29T04:07:46;4.10;;;2.50;;
2191;SDS011;1102;49.718;11.902;2022-07-29T04:10:29;7.60;;;2.50;;
2191;SDS011;1102;49.718;11.902;2022-07-29T04:13:06;4.23;;;2.30;;
2191;SDS011;1102;49.718;11.902;2022-07-29T04:15:34;3.43;;;2.43;;
2191;SDS011;1102;49.718;11.902;2022-07-29T04:18:04;8.00;;;2.50;;
2191;SDS011;1102;49.718;11.902;2022-07-29T04:20:32;4.83;;;2.60;;
2191;SDS011;1102;49.718;11.902;2022-07-29T04:22:59;3.10;;;2.80;;
2191;SDS011;1102;49.718;11.902;2022-07-29T04:25:30;3.97;;;2.70;;
2191;SDS011;1102;49.718;11.902;2022-07-29T04:27:58;3.37;;;2.50;;
2191;SDS011;1102;49.718;11.902;2022-07-29T04:30:31;3.50;;;2.43;;
2191;SDS011;1102;49.718;11.902;2022-07-29T04:33:00;3.20;;;2.53;;
2191;SDS011;1102;49.718;11.902;2022-07-29T04:35:35;8.73;;;2.93;;
2191;SDS011;1102;49.718;11.902;2022-07-29T04:38:20;5.03;;;2.90;;
2191;SDS011;1102;49.718;11.902;2022-07-29T04:40:53;2.43;;;2.23;;
2191;SDS011;1102;49.718;11.902;2022-07-29T04:43:24;4.30;;;3.30;;
2191;SDS011;1102;49.718;11.902;2022-07-29T04:45:52;2.97;;;2.77;;
2191;SDS011;1102;49.718;11.902;2022-07-29T04:48:28;3.27;;;2.43;;
2191;SDS011;1102;49.718;11.902;2022-07-29T04:51:00;2.90;;;2.60;;
2191;SDS011;1102;49.718;11.902;2022-07-29T04:53:41;4.73;;;3.07;;
2191;SDS011;1102;49.718;11.902;2022-07-29T04:56:11;3.93;;;2.97;;
2191;SDS011;1102;49.718;11.902;2022-07-29T04:58:38;3.20;;;2.90;;
2191;SDS011;1102;49.718;11.902;2022-07-29T05:01:13;3.87;;;2.70;;
2191;SDS011;1102;49.718;11.902;2022-07-29T05:03:42;4.20;;;3.53;;
2191;SDS011;1102;49.718;11.902;2022-07-29T05:06:10;2.97;;;2.70;;
2191;SDS011;1102;49.718;11.902;2022-07-29T05:08:38;5.07;;;3.37;;
2191;SDS011;1102;49.718;11.902;2022-07-29T05:11:07;3.43;;;2.80;;
2191;SDS011;1102;49.718;11.902;2022-07-29T05:13:48;6.57;;;3.20;;
2191;SDS011;1102;49.718;11.902;2022-07-29T05:16:23;2.67;;;2.47;;
2191;SDS011;1102;49.718;11.902;2022-07-29T05:18:53;5.30;;;2.80;;
2191;SDS011;1102;49.718;11.902;2022-07-29T05:21:30;3.03;;;2.60;;
2191;SDS011;1102;49.718;11.902;2022-07-29T05:24:03;3.23;;;2.97;;
2191;SDS011;1102;49.718;11.902;2022-07-29T05:26:36;3.27;;;2.47;;
2191;SDS011;1102;49.718;11.902;2022-07-29T05:29:03;2.40;;;2.20;;
2191;SDS011;1102;49.718;11.902;2022-07-29T05:31:31;4.23;;;3.83;;
2191;SDS011;1102;49.718;11.902;2022-07-29T05:34:04;4.50;;;2.90;;
2191;SDS011;1102;49.718;11.902;2022-07-29T05:36:36;4.50;;;3.27;;
2191;SDS011;1102;49.718;11.902;2022-07-29T05:39:04;4.20;;;3.20;;
2191;SDS011;1102;49.718;11.902;2022-07-29T05:41:32;6.77;;;3.10;;
2191;SDS011;1102;49.718;11.902;2022-07-29T05:44:00;4.50;;;3.70;;
2191;SDS011;1102;49.718;11.902;2022-07-29T05:46:31;5.00;;;3.00;;
2191;SDS011;1102;49.718;11.902;2022-07-29T05:48:58;6.93;;;3.37;;
2191;SDS011;1102;49.718;11.902;2022-07-29T05:51:25;3.20;;;3.00;;
2191;SDS011;1102;49.718;11.902;2022-07-29T05:53:52;6.50;;;2.83;;
2191;SDS011;1102;49.718;11.902;2022-07-29T05:56:19;4.97;;;3.13;;
2191;SDS011;1102;49.718;11.902;2022-07-29T05:58:46;4.13;;;3.50;;
2191;SDS011;1102;49.718;11.902;2022-07-29T06:01:12;7.03;;;3.60;;
2191;SDS011;1102;49.718;11.902;2022-07-29T06:03:39;5.90;;;4.20;;
2191;SDS011;1102;49.718;11.902;2022-07-29T06:06:07;7.63;;;3.70;;
2191;SDS011;1102;49.718;11.902;2022-07-29T06:08:34;8.10;;;3.67;;
2191;SDS011;1102;49.718;11.902;2022-07-29T06:11:03;6.30;;;3.30;;
2191;SDS011;1102;49.718;11.902;2022-07-29T06:13:30;7.67;;;3.57;;
2191;SDS011;1102;49.718;11.902;2022-07-29T06:15:57;8.43;;;3.47;;
2191;SDS011;1102;49.718;11.902;2022-07-29T06:18:24;8.00;;;3.97;;
2191;SDS011;1102;49.718;11.902;2022-07-29T06:20:51;13.50;;;4.70;;
2191;SDS011;1102;49.718;11.902;2022-07-29T06:23:18;11.33;;;3.93;;
2191;SDS011;1102;49.718;11.902;2022-07-29T06:25:45;7.47;;;4.73;;
2191;SDS011;1102;49.718;11.902;2022-07-29T06:28:13;8.20;;;3.47;;
2191;SDS011;1102;49.718;11.902;2022-07-29T06:30:39;10.77;;;5.27;;
2191;SDS011;1102;49.718;11.902;2022-07-29T06:33:06;8.47;;;4.20;;
2191;SDS011;1102;49.718;11.902;2022-07-29T06:35:33;13.23;;;3.97;;
2191;SDS011;1102;49.718;11.902;2022-07-29T06:38:07;12.43;;;4.07;;
2191;SDS011;1102;49.718;11.902;2022-07-29T06:40:54;4.60;;;3.80;;
2191;SDS011;1102;49.718;11.902;2022-07-29T06:43:31;5.70;;;2.70;;
2191;SDS011;1102;49.718;11.902;2022-07-29T06:46:16;6.03;;;3.30;;
2191;SDS011;1102;49.718;11.902;2022-07-29T06:48:44;3.17;;;2.83;;
2191;SDS011;1102;49.718;11.902;2022-07-29T06:51:12;4.77;;;2.87;;
2191;SDS011;1102;49.718;11.902;2022-07-29T06:53:39;6.07;;;2.87;;
2191;SDS011;1102;49.718;11.902;2022-07-29T06:56:25;6.23;;;3.90;;
2191;SDS011;1102;49.718;11.902;2022-07-29T06:58:52;4.77;;;3.20;;
2191;SDS011;1102;49.718;11.902;2022-07-29T07:01:18;5.87;;;3.20;;
2191;SDS011;1102;49.718;11.902;2022-07-29T07:03:47;3.73;;;2.93;;
2191;SDS011;1102;49.718;11.902;2022-07-29T07:06:13;6.67;;;3.43;;
2191;SDS011;1102;49.718;11.902;2022-07-29T07:08:40;3.23;;;3.03;;
2191;SDS011;1102;49.718;11.902;2022-07-29T07:11:07;5.33;;;3.37;;
2191;SDS011;1102;49.718;11.902;2022-07-29T07:13:34;3.73;;;3.00;;
2191;SDS011;1102;49.718;11.902;2022-07-29T07:16:02;3.87;;;2.87;;
2191;SDS011;1102;49.718;11.902;2022-07-29T07:18:30;5.50;;;3.60;;
2191;SDS011;1102;49.718;11.902;2022-07-29T07:20:57;6.43;;;3.30;;
2191;SDS011;1102;49.718;11.902;2022-07-29T07:23:24;5.90;;;3.33;;
2191;SDS011;1102;49.718;11.902;2022-07-29T07:25:51;5.20;;;3.10;;
2191;SDS011;1102;49.718;11.902;2022-07-29T07:28:18;5.93;;;3.00;;
2191;SDS011;1102;49.718;11.902;2022-07-29T07:30:50;4.30;;;3.50;;
2191;SDS011;1102;49.718;11.902;2022-07-29T07:33:17;3.40;;;3.03;;
2191;SDS011;1102;49.718;11.902;2022-07-29T07:35:44;4.00;;;2.97;;
2191;SDS011;1102;49.718;11.902;2022-07-29T07:38:11;3.40;;;3.10;;
2191;SDS011;1102;49.718;11.902;2022-07-29T07:40:38;4.07;;;3.40;;
2191;SDS011;1102;49.718;11.902;2022-07-29T07:43:05;5.50;;;3.30;;
2191;SDS011;1102;49.718;11.902;2022-07-29T07:45:32;3.43;;;3.13;;
2191;SDS011;1102;49.718;11.902;2022-07-29T07:47:59;4.13;;;3.20;;
2191;SDS011;1102;49.718;11.902;2022-07-29T07:50:26;4.80;;;3.37;;
2191;SDS011;1102;49.718;11.902;2022-07-29T07:52:54;5.60;;;3.40;;
2191;SDS011;1102;49.718;11.902;2022-07-29T07:55:24;4.30;;;3.17;;
2191;SDS011;1102;49.718;11.902;2022-07-29T07:57:52;5.00;;;3.03;;
2191;SDS011;1102;49.718;11.902;2022-07-29T08:00:19;3.70;;;3.40;;
2191;SDS011;1102;49.718;11.902;2022-07-29T08:02:49;4.37;;;3.60;;
2191;SDS011;1102;49.718;11.902;2022-07-29T08:05:16;4.83;;;3.70;;
2191;SDS011;1102;49.718;11.902;2022-07-29T08:07:47;7.30;;;3.60;;
2191;SDS011;1102;49.718;11.902;2022-07-29T08:10:14;3.97;;;3.63;;
2191;SDS011;1102;49.718;11.902;2022-07-29T08:13:08;4.67;;;3.10;;
2191;SDS011;1102;49.718;11.902;2022-07-29T08:15:38;3.50;;;2.87;;
2191;SDS011;1102;49.718;11.902;2022-07-29T08:18:05;3.13;;;2.90;;
2191;SDS011;1102;49.718;11.902;2022-07-29T08:20:34;4.23;;;3.83;;
2191;SDS011;1102;49.718;11.902;2022-07-29T08:23:02;3.63;;;3.33;;
2191;SDS011;1102;49.718;11.902;2022-07-29T08:25:30;5.53;;;3.53;;
2191;SDS011;1102;49.718;11.902;2022-07-29T08:27:59;3.43;;;3.13;;
2191;SDS011;1102;49.718;11.902;2022-07-29T08:30:26;3.40;;;3.07;;
2191;SDS011;1102;49.718;11.902;2022-07-29T08:32:53;6.13;;;3.93;;
2191;SDS011;1102;49.718;11.902;2022-07-29T08:35:22;3.93;;;3.47;;
2191;SDS011;1102;49.718;11.902;2022-07-29T08:37:49;3.53;;;3.23;;
2191;SDS011;1102;49.718;11.902;2022-07-29T08:40:17;3.63;;;3.43;;
2191;SDS011;1102;49.718;11.902;2022-07-29T08:42:44;6.67;;;3.60;;
2191;SDS011;1102;49.718;11.902;2022-07-29T08:45:11;6.33;;;3.50;;
2191;SDS011;1102;49.718;11.902;2022-07-29T08:47:38;4.00;;;3.70;;
2191;SDS011;1102;49.718;11.902;2022-07-29T08:50:06;4.00;;;3.20;;
2191;SDS011;1102;49.718;11.902;2022-07-29T08:52:41;5.03;;;3.40;;
2191;SDS011;1102;49.718;11.902;2022-07-29T08:55:08;3.93;;;3.53;;
2191;SDS011;1102;49.718;11.902;2022-07-29T08:57:36;4.07;;;3.40;;
2191;SDS011;1102;49.718;11.902;2022-07-29T09:00:17;4.23;;;3.93;;
2191;SDS011;1102;49.718;11.902;2022-07-29T09:02:45;7.80;;;3.87;;
2191;SDS011;1102;49.718;11.902;2022-07-29T09:05:18;4.03;;;3.57;;
2191;SDS011;1102;49.718;11.902;2022-07-29T09:07:45;4.10;;;3.63;;
2191;SDS011;1102;49.718;11.902;2022-07-29T09:10:14;7.60;;;3.83;;
2191;SDS011;1102;49.718;11.902;2022-07-29T09:12:41;5.20;;;4.07;;
2191;SDS011;1102;49.718;11.902;2022-07-29T09:15:08;7.27;;;4.47;;
2191;SDS011;1102;49.718;11.902;2022-07-29T09:20:09;4.63;;;3.90;;
2191;SDS011;1102;49.718;11.902;2022-07-29T09:22:37;4.30;;;3.90;;
2191;SDS011;1102;49.718;11.902;2022-07-29T09:25:07;4.03;;;3.63;;
2191;SDS011;1102;49.718;11.902;2022-07-29T09:27:35;6.13;;;3.93;;
2191;SDS011;1102;49.718;11.902;2022-07-29T09:30:06;5.60;;;4.20;;
2191;SDS011;1102;49.718;11.902;2022-07-29T09:32:56;5.10;;;3.33;;
2191;SDS011;1102;49.718;11.902;2022-07-29T09:35:25;4.37;;;3.73;;
2191;SDS011;1102;49.718;11.902;2022-07-29T09:37:52;4.30;;;4.00;;
2191;SDS011;1102;49.718;11.902;2022-07-29T09:42:47;8.27;;;4.90;;
2191;SDS011;1102;49.718;11.902;2022-07-29T09:45:25;8.50;;;4.30;;
2191;SDS011;1102;49.718;11.902;2022-07-29T09:47:53;6.23;;;4.60;;
2191;SDS011;1102;49.718;11.902;2022-07-29T09:50:20;6.17;;;5.00;;
2191;SDS011;1102;49.718;11.902;2022-07-29T09:52:51;5.30;;;4.07;;
2191;SDS011;1102;49.718;11.902;2022-07-29T09:55:19;5.03;;;4.63;;
2191;SDS011;1102;49.718;11.902;2022-07-29T09:57:46;5.70;;;4.90;;
2191;SDS011;1102;49.718;11.902;2022-07-29T10:00:14;6.70;;;4.23;;
2191;SDS011;1102;49.718;11.902;2022-07-29T10:02:46;8.53;;;4.20;;
2191;SDS011;1102;49.718;11.902;2022-07-29T10:05:23;5.37;;;4.33;;
2191;SDS011;1102;49.718;11.902;2022-07-29T10:08:02;5.40;;;4.40;;
2191;SDS011;1102;49.718;11.902;2022-07-29T10:10:29;7.17;;;4.77;;
2191;SDS011;1102;49.718;11.902;2022-07-29T10:15:52;6.33;;;5.13;;
2191;SDS011;1102;49.718;11.902;2022-07-29T10:18:19;5.63;;;4.70;;
2191;SDS011;1102;49.718;11.902;2022-07-29T10:20:46;6.53;;;5.10;;
2191;SDS011;1102;49.718;11.902;2022-07-29T10:23:14;8.33;;;5.00;;
2191;SDS011;1102;49.718;11.902;2022-07-29T10:25:41;4.87;;;4.57;;
2191;SDS011;1102;49.718;11.902;2022-07-29T10:28:12;4.70;;;4.30;;
2191;SDS011;1102;49.718;11.902;2022-07-29T10:30:42;7.20;;;4.43;;
2191;SDS011;1102;49.718;11.902;2022-07-29T10:41:50;8.93;;;5.00;;
2191;SDS011;1102;49.718;11.902;2022-07-29T10:44:39;5.77;;;5.37;;
2191;SDS011;1102;49.718;11.902;2022-07-29T10:47:07;5.87;;;4.50;;
2191;SDS011;1102;49.718;11.902;2022-07-29T10:49:35;6.30;;;4.77;;
2191;SDS011;1102;49.718;11.902;2022-07-29T10:52:07;5.60;;;5.10;;
2191;SDS011;1102;49.718;11.902;2022-07-29T10:59:42;4.67;;;4.37;;
2191;SDS011;1102;49.718;11.902;2022-07-29T11:05:18;6.40;;;4.70;;
2191;SDS011;1102;49.718;11.902;2022-07-29T11:10:46;5.40;;;5.00;;
2191;SDS011;1102;49.718;11.902;2022-07-29T11:16:31;5.23;;;4.83;;
2191;SDS011;1102;49.718;11.902;2022-07-29T11:19:31;5.53;;;5.03;;
2191;SDS011;1102;49.718;11.902;2022-07-29T11:21:59;6.10;;;5.70;;
2191;SDS011;1102;49.718;11.902;2022-07-29T11:29:39;6.70;;;5.27;;
2191;SDS011;1102;49.718;11.902;2022-07-29T11:32:16;5.57;;;5.07;;
2191;SDS011;1102;49.718;11.902;2022-07-29T11:35:19;5.07;;;4.67;;
2191;SDS011;1102;49.718;11.902;2022-07-29T11:38:27;7.23;;;4.83;;
2191;SDS011;1102;49.718;11.902;2022-07-29T11:43:56;4.93;;;4.57;;
2191;SDS011;1102;49.718;11.902;2022-07-29T11:49:26;4.93;;;4.40;;
2191;SDS011;1102;49.718;11.902;2022-07-29T11:51:58;4.37;;;4.07;;
2191;SDS011;1102;49.718;11.902;2022-07-29T11:54:33;6.17;;;5.47;;
2191;SDS011;1102;49.718;11.902;2022-07-29T11:57:20;5.83;;;5.30;;
2191;SDS011;1102;49.718;11.902;2022-07-29T11:59:47;5.30;;;4.90;;
2191;SDS011;1102;49.718;11.902;2022-07-29T12:02:16;4.60;;;4.30;;
2191;SDS011;1102;49.718;11.902;2022-07-29T12:05:02;5.27;;;4.77;;
2191;SDS011;1102;49.718;11.902;2022-07-29T12:07:36;4.47;;;4.00;;
2191;SDS011;1102;49.718;11.902;2022-07-29T12:10:06;5.70;;;4.80;;
2191;SDS011;1102;49.718;11.902;2022-07-29T12:12:50;4.77;;;4.47;;
2191;SDS011;1102;49.718;11.902;2022-07-29T12:15:19;6.50;;;4.23;;
2191;SDS011;1102;49.718;11.902;2022-07-29T12:18:10;3.83;;;3.63;;
2191;SDS011;1102;49.718;11.902;2022-07-29T12:20:38;4.50;;;3.77;;
2191;SDS011;1102;49.718;11.902;2022-07-29T12:23:09;4.50;;;4.10;;
2191;SDS011;1102;49.718;11.902;2022-07-29T12:25:38;4.70;;;4.07;;
2191;SDS011;1102;49.718;11.902;2022-07-29T12:28:10;5.43;;;3.90;;
2191;SDS011;1102;49.718;11.902;2022-07-29T12:30:46;4.20;;;3.90;;
2191;SDS011;1102;49.718;11.902;2022-07-29T12:33:27;4.00;;;3.80;;
2191;SDS011;1102;49.718;11.902;2022-07-29T12:35:59;3.83;;;3.63;;
2191;SDS011;1102;49.718;11.902;2022-07-29T12:38:34;4.27;;;3.97;;
2191;SDS011;1102;49.718;11.902;2022-07-29T12:41:02;4.03;;;3.70;;
2191;SDS011;1102;49.718;11.902;2022-07-29T12:43:30;4.20;;;3.90;;
2191;SDS011;1102;49.718;11.902;2022-07-29T12:45:57;4.23;;;3.77;;
2191;SDS011;1102;49.718;11.902;2022-07-29T12:48:41;3.53;;;3.20;;
2191;SDS011;1102;49.718;11.902;2022-07-29T12:51:10;4.00;;;3.60;;
2191;SDS011;1102;49.718;11.902;2022-07-29T12:53:38;4.10;;;3.80;;
2191;SDS011;1102;49.718;11.902;2022-07-29T12:56:05;3.87;;;3.40;;
2191;SDS011;1102;49.718;11.902;2022-07-29T12:59:10;5.23;;;3.87;;
2191;SDS011;1102;49.718;11.902;2022-07-29T13:01:44;3.40;;;3.13;;
2191;SDS011;1102;49.718;11.902;2022-07-29T13:04:28;4.20;;;3.90;;
2191;SDS011;1102;49.718;11.902;2022-07-29T13:07:00;3.80;;;3.50;;
2191;SDS011;1102;49.718;11.902;2022-07-29T13:09:40;4.17;;;3.87;;
2191;SDS011;1102;49.718;11.902;2022-07-29T13:12:08;3.80;;;3.33;;
2191;SDS011;1102;49.718;11.902;2022-07-29T13:14:38;4.83;;;3.83;;
2191;SDS011;1102;49.718;11.902;2022-07-29T13:19:42;3.63;;;3.40;;
2191;SDS011;1102;49.718;11.902;2022-07-29T13:22:10;4.30;;;3.90;;
2191;SDS011;1102;49.718;11.902;2022-07-29T13:27:36;3.27;;;3.07;;
2191;SDS011;1102;49.718;11.902;2022-07-29T13:30:05;4.60;;;3.40;;
2191;SDS011;1102;49.718;11.902;2022-07-29T13:32:35;5.03;;;3.97;;
2191;SDS011;1102;49.718;11.902;2022-07-29T13:35:06;4.30;;;4.00;;
2191;SDS011;1102;49.718;11.902;2022-07-29T13:37:34;3.50;;;3.30;;
2191;SDS011;1102;49.718;11.902;2022-07-29T13:40:05;4.30;;;4.00;;
2191;SDS011;1102;49.718;11.902;2022-07-29T13:42:33;4.63;;;4.17;;
2191;SDS011;1102;49.718;11.902;2022-07-29T13:45:00;3.83;;;3.40;;
2191;SDS011;1102;49.718;11.902;2022-07-29T13:47:27;4.07;;;3.67;;
2191;SDS011;1102;49.718;11.902;2022-07-29T13:49:58;3.17;;;2.83;;
2191;SDS011;1102;49.718;11.902;2022-07-29T13:52:28;3.53;;;3.23;;
2191;SDS011;1102;49.718;11.902;2022-07-29T13:54:55;5.37;;;4.90;;
2191;SDS011;1102;49.718;11.902;2022-07-29T13:57:22;5.50;;;5.00;;
2191;SDS011;1102;49.718;11.902;2022-07-29T13:59:49;6.43;;;5.33;;
2191;SDS011;1102;49.718;11.902;2022-07-29T14:02:20;7.90;;;6.17;;
2191;SDS011;1102;49.718;11.902;2022-07-29T14:04:51;6.57;;;5.53;;
2191;SDS011;1102;49.718;11.902;2022-07-29T14:07:20;9.87;;;6.63;;
2191;SDS011;1102;49.718;11.902;2022-07-29T14:09:47;7.10;;;6.40;;
2191;SDS011;1102;49.718;11.902;2022-07-29T14:12:13;7.50;;;6.17;;
2191;SDS011;1102;49.718;11.902;2022-07-29T14:14:40;9.73;;;6.93;;
2191;SDS011;1102;49.718;11.902;2022-07-29T14:17:08;6.07;;;5.57;;
2191;SDS011;1102;49.718;11.902;2022-07-29T14:19:35;6.97;;;6.30;;
2191;SDS011;1102;49.718;11.902;2022-07-29T14:22:02;6.83;;;6.10;;
2191;SDS011;1102;49.718;11.902;2022-07-29T14:24:30;6.67;;;6.07;;
2191;SDS011;1102;49.718;11.902;2022-07-29T14:26:57;7.80;;;5.90;;
2191;SDS011;1102;49.718;11.902;2022-07-29T14:29:24;7.23;;;6.53;;
2191;SDS011;1102;49.718;11.902;2022-07-29T14:32:06;8.17;;;5.87;;
2191;SDS011;1102;49.718;11.902;2022-07-29T14:34:35;6.70;;;6.20;;
2191;SDS011;1102;49.718;11.902;2022-07-29T14:37:03;5.90;;;5.40;;
2191;SDS011;1102;49.718;11.902;2022-07-29T14:39:32;9.70;;;8.07;;
2191;SDS011;1102;49.718;11.902;2022-07-29T14:42:08;8.13;;;7.37;;
2191;SDS011;1102;49.718;11.902;2022-07-29T14:44:36;8.27;;;6.77;;
2191;SDS011;1102;49.718;11.902;2022-07-29T14:47:03;7.30;;;6.67;;
2191;SDS011;1102;49.718;11.902;2022-07-29T14:49:33;6.87;;;5.47;;
2191;SDS011;1102;49.718;11.902;2022-07-29T14:52:00;6.50;;;5.90;;
2191;SDS011;1102;49.718;11.902;2022-07-29T14:54:27;7.30;;;6.60;;
2191;SDS011;1102;49.718;11.902;2022-07-29T14:56:54;6.93;;;6.20;;
2191;SDS011;1102;49.718;11.902;2022-07-29T14:59:23;6.97;;;6.37;;
2191;SDS011;1102;49.718;11.902;2022-07-29T15:01:50;6.90;;;6.23;;
2191;SDS011;1102;49.718;11.902;2022-07-29T15:04:16;7.77;;;6.90;;
2191;SDS011;1102;49.718;11.902;2022-07-29T15:06:43;8.20;;;7.40;;
2191;SDS011;1102;49.718;11.902;2022-07-29T15:09:10;8.17;;;6.50;;
2191;SDS011;1102;49.718;11.902;2022-07-29T15:11:37;7.13;;;6.37;;
2191;SDS011;1102;49.718;11.902;2022-07-29T15:14:04;7.70;;;7.10;;
2191;SDS011;1102;49.718;11.902;2022-07-29T15:16:32;6.57;;;5.53;;
2191;SDS011;1102;49.718;11.902;2022-07-29T15:19:01;6.90;;;6.40;;
2191;SDS011;1102;49.718;11.902;2022-07-29T15:21:28;7.03;;;6.43;;
2191;SDS011;1102;49.718;11.902;2022-07-29T15:23:55;7.73;;;7.13;;
2191;SDS011;1102;49.718;11.902;2022-07-29T15:26:21;7.93;;;7.23;;
2191;SDS011;1102;49.718;11.902;2022-07-29T15:28:48;9.57;;;7.90;;
2191;SDS011;1102;49.718;11.902;2022-07-29T15:31:15;9.00;;;8.20;;
2191;SDS011;1102;49.718;11.902;2022-07-29T15:33:42;8.03;;;7.43;;
2191;SDS011;1102;49.718;11.902;2022-07-29T15:36:08;8.67;;;7.77;;
2191;SDS011;1102;49.718;11.902;2022-07-29T15:38:36;7.43;;;6.83;;
2191;SDS011;1102;49.718;11.902;2022-07-29T15:41:07;11.57;;;7.10;;
2191;SDS011;1102;49.718;11.902;2022-07-29T15:43:34;7.80;;;7.10;;
2191;SDS011;1102;49.718;11.902;2022-07-29T15:46:01;6.80;;;6.30;;
2191;SDS011;1102;49.718;11.902;2022-07-29T15:48:46;8.23;;;7.40;;
2191;SDS011;1102;49.718;11.902;2022-07-29T15:51:13;8.30;;;7.60;;
2191;SDS011;1102;49.718;11.902;2022-07-29T15:53:40;10.00;;;7.83;;
2191;SDS011;1102;49.718;11.902;2022-07-29T15:56:07;7.73;;;6.63;;
2191;SDS011;1102;49.718;11.902;2022-07-29T15:58:34;8.70;;;7.03;;
2191;SDS011;1102;49.718;11.902;2022-07-29T16:01:00;7.30;;;6.80;;
2191;SDS011;1102;49.718;11.902;2022-07-29T16:03:27;6.63;;;6.10;;
2191;SDS011;1102;49.718;11.902;2022-07-29T16:05:55;8.23;;;7.43;;
2191;SDS011;1102;49.718;11.902;2022-07-29T16:08:22;6.77;;;6.03;;
2191;SDS011;1102;49.718;11.902;2022-07-29T16:10:49;7.13;;;6.10;;
2191;SDS011;1102;49.718;11.902;2022-07-29T16:13:15;6.43;;;5.93;;
2191;SDS011;1102;49.718;11.902;2022-07-29T16:15:44;7.03;;;6.50;;
2191;SDS011;1102;49.718;11.902;2022-07-29T16:18:27;7.50;;;6.90;;
2191;SDS011;1102;49.718;11.902;2022-07-29T16:20:55;7.10;;;6.47;;
2191;SDS011;1102;49.718;11.902;2022-07-29T16:23:22;6.03;;;5.57;;
2191;SDS011;1102;49.718;11.902;2022-07-29T16:25:50;7.23;;;6.53;;
2191;SDS011;1102;49.718;11.902;2022-07-29T16:28:25;7.70;;;7.00;;
2191;SDS011;1102;49.718;11.902;2022-07-29T16:30:52;7.30;;;6.60;;
2191;SDS011;1102;49.718;11.902;2022-07-29T16:33:19;6.90;;;6.40;;
2191;SDS011;1102;49.718;11.902;2022-07-29T16:35:45;6.97;;;6.33;;
2191;SDS011;1102;49.718;11.902;2022-07-29T16:38:12;7.40;;;6.87;;